Emmonak Airport

About
Name: Emmonak Airport
Identifier:  EMK/PAEM
Serves:  Emmonak, Alaska
Owner:  State of Alaska DOT&PF - Northern Region
Public/Private:  Public
Local Time:  17. Aug 21:26 AKDT
Description: Emmonak Airport is a state-owned public-use airport located in Emmonak, a city in the Kusilvak Census Area of the U.S. state of Alaska.
Source: Wikipedia
Location
Runways
Identifier Length (m/ft) Surface
16/34 4,601/4,601 Gravel
Flights per Day
20 flights
Distance: 86km (53mi)
Punctuality
90% (2 flights per day delayed)
Delay Average: 14 minutes
Current Weather
 11 C (Humidity: 71%)
  16kt (29km/h / 18mph) from 250°
19 knots Gusts

  Overcast at 3,500 feet (1,066 meter)
  16km (10 mi.)
 METAR PAEM 302356Z AUTO 25016G19KT 10SM OVC035 11/06 A3024 RMK AO2 SLP301 T01110061 10111 20100 51013

Current Flights

Departures
Number Departure To Airline
Arrivals
Number Arrival From Airline

Current Delays

Departures
N/A
Arrivals
N/A

Destinations

Top Destinations
Airport Flights
per week
Seats
per week
  Anchorage (ANC) 2 - 0 0

Airlines & Planes

Top Airlines
Airline Flights
per Day
Seats
per Day
Lynden Air Cargo 0 -
Alaska Central Express 0 -
Top Plane Types
Model Flights Seats
Lockheed C-130 0.3/day - 0
Beech 1900D 0.0/day - 0